Time;durP1;ratioP1;P1;durP2;ratioP2;P2;SDS_P1;SDS_P2;PMS_P1;PMS_P2;Temp;Humidity;BMP_temperature;BMP_pressure;BME280_temperature;BME280_humidity;BME280_pressure;Samples;Min_cycle;Max_cycle;Signal;HPM_P1;HPM_P2
2021/04/07 00:00:57;;;;;;;3.50;2.33;;;;;;;;;;4939600;29;20196;-84
2021/04/07 00:06:26;;;;;;;3.03;2.53;;;;;;;;;;4956789;29;20467;-83
2021/04/07 00:08:52;;;;;;;3.97;3.37;;;;;;;;;;4956935;29;20183;-83
2021/04/07 00:11:18;;;;;;;4.85;3.65;;;;;;;;;;4956531;29;20520;-84
2021/04/07 00:13:47;;;;;;;3.85;2.90;;;;;;;;;;4956676;29;20316;-83
2021/04/07 00:16:13;;;;;;;4.93;2.30;;;;;;;;;;4956660;29;20199;-82
2021/04/07 00:21:43;;;;;;;2.40;2.20;;;;;;;;;;4956473;29;20656;-84
2021/04/07 00:24:09;;;;;;;2.50;2.30;;;;;;;;;;4956508;29;20577;-84
2021/04/07 00:26:35;;;;;;;2.92;2.35;;;;;;;;;;4939217;29;20642;-85
2021/04/07 00:29:01;;;;;;;2.42;2.22;;;;;;;;;;4955496;29;20179;-82
2021/04/07 00:31:27;;;;;;;2.30;2.10;;;;;;;;;;4955477;29;20179;-82
2021/04/07 00:36:57;;;;;;;2.45;2.25;;;;;;;;;;4956090;29;20496;-83
2021/04/07 00:39:23;;;;;;;4.10;2.33;;;;;;;;;;4955724;29;20213;-84
2021/04/07 00:41:49;;;;;;;3.20;2.33;;;;;;;;;;4956503;29;20429;-84
2021/04/07 00:44:15;;;;;;;4.10;2.70;;;;;;;;;;4960991;29;20454;-83
2021/04/07 00:46:40;;;;;;;2.57;2.37;;;;;;;;;;4962847;29;20438;-83
2021/04/07 00:52:10;;;;;;;3.25;2.28;;;;;;;;;;4958523;29;20404;-81
2021/04/07 00:54:36;;;;;;;2.50;2.15;;;;;;;;;;4962863;29;20242;-84
2021/04/07 00:57:02;;;;;;;2.45;2.00;;;;;;;;;;4965238;29;20179;-82
2021/04/07 00:59:29;;;;;;;2.05;1.95;;;;;;;;;;4939111;29;20268;-83
2021/04/07 01:01:56;;;;;;;2.47;2.28;;;;;;;;;;4955168;28;20182;-83
2021/04/07 01:04:22;;;;;;;2.50;2.28;;;;;;;;;;4955850;29;20198;-83
2021/04/07 01:06:48;;;;;;;2.28;2.00;;;;;;;;;;4956142;29;20187;-85
2021/04/07 01:09:14;;;;;;;2.00;1.90;;;;;;;;;;4971753;29;20186;-80
2021/04/07 01:11:40;;;;;;;2.15;1.95;;;;;;;;;;4963024;29;20186;-85
2021/04/07 01:14:06;;;;;;;2.30;2.13;;;;;;;;;;4956698;29;20169;-84
2021/04/07 01:16:33;;;;;;;4.15;1.73;;;;;;;;;;4955953;29;20272;-84
2021/04/07 01:22:03;;;;;;;3.15;2.40;;;;;;;;;;4955620;29;20185;-84
2021/04/07 01:24:31;;;;;;;3.20;1.98;;;;;;;;;;4955136;29;20225;-83
2021/04/07 01:26:57;;;;;;;2.25;2.05;;;;;;;;;;4955658;29;20182;-83
2021/04/07 01:29:23;;;;;;;2.40;2.20;;;;;;;;;;4954823;29;20645;-84
2021/04/07 01:31:53;;;;;;;3.17;2.33;;;;;;;;;;4955476;29;20981;-84
2021/04/07 01:37:22;;;;;;;2.60;1.80;;;;;;;;;;4955390;29;20181;-84
2021/04/07 01:39:48;;;;;;;4.13;2.97;;;;;;;;;;4954957;29;20179;-83
2021/04/07 01:42:14;;;;;;;2.73;1.80;;;;;;;;;;4955421;29;20429;-84
2021/04/07 01:44:41;;;;;;;2.70;2.50;;;;;;;;;;4954939;29;20422;-83
2021/04/07 01:47:08;;;;;;;4.57;2.22;;;;;;;;;;4955105;29;20202;-82
2021/04/07 01:52:37;;;;;;;5.38;2.80;;;;;;;;;;4955267;29;20178;-78
2021/04/07 01:55:04;;;;;;;2.73;2.33;;;;;;;;;;4954627;29;20231;-83
2021/04/07 01:57:30;;;;;;;2.47;2.28;;;;;;;;;;4954985;29;20410;-82
2021/04/07 01:59:56;;;;;;;2.87;2.60;;;;;;;;;;4937058;29;20201;-81
2021/04/07 02:02:22;;;;;;;4.73;2.60;;;;;;;;;;4955065;29;20450;-82
2021/04/07 02:04:48;;;;;;;3.70;2.70;;;;;;;;;;4954583;29;20434;-82
2021/04/07 02:07:15;;;;;;;2.72;2.40;;;;;;;;;;4954868;29;20157;-82
2021/04/07 02:09:41;;;;;;;4.05;3.08;;;;;;;;;;4954439;29;20218;-82
2021/04/07 02:12:08;;;;;;;2.97;2.70;;;;;;;;;;4937934;29;20187;-80
2021/04/07 02:14:34;;;;;;;2.83;2.63;;;;;;;;;;4954453;29;20185;-81
2021/04/07 02:17:01;;;;;;;2.78;2.58;;;;;;;;;;4954695;29;20205;-82
2021/04/07 02:22:31;;;;;;;4.05;3.17;;;;;;;;;;4955155;29;20221;-83
2021/04/07 02:24:57;;;;;;;4.45;3.90;;;;;;;;;;4954551;29;20240;-83
2021/04/07 02:27:25;;;;;;;3.37;3.07;;;;;;;;;;4954937;29;20186;-84
2021/04/07 02:29:53;;;;;;;2.95;2.75;;;;;;;;;;4953504;29;20509;-84
2021/04/07 02:32:19;;;;;;;2.95;2.65;;;;;;;;;;4954047;29;20234;-84
2021/04/07 02:37:48;;;;;;;3.20;2.80;;;;;;;;;;4954779;29;20600;-85
2021/04/07 02:40:15;;;;;;;3.40;3.07;;;;;;;;;;4954805;29;20170;-85
2021/04/07 02:42:40;;;;;;;4.30;3.40;;;;;;;;;;4954717;29;20833;-84
2021/04/07 02:45:07;;;;;;;2.93;2.73;;;;;;;;;;4964183;29;20187;-80
2021/04/07 02:47:33;;;;;;;2.83;2.63;;;;;;;;;;4971649;29;20425;-76
2021/04/07 02:53:03;;;;;;;4.40;3.97;;;;;;;;;;4955217;29;20447;-83
2021/04/07 02:55:29;;;;;;;7.10;3.20;;;;;;;;;;4954325;29;20237;-83
2021/04/07 02:57:55;;;;;;;3.03;2.65;;;;;;;;;;4954591;29;20175;-83
2021/04/07 03:00:21;;;;;;;4.50;4.10;;;;;;;;;;4936335;29;20180;-82
2021/04/07 03:02:47;;;;;;;3.65;3.35;;;;;;;;;;4954253;29;20430;-80
2021/04/07 03:05:13;;;;;;;3.20;2.90;;;;;;;;;;4954110;29;20570;-82
2021/04/07 03:07:43;;;;;;;4.85;3.47;;;;;;;;;;4954173;29;20182;-83
2021/04/07 03:10:10;;;;;;;5.18;3.10;;;;;;;;;;4954750;29;20212;-79
2021/04/07 03:12:36;;;;;;;3.67;3.38;;;;;;;;;;4940754;29;20208;-74
2021/04/07 03:15:02;;;;;;;4.03;2.88;;;;;;;;;;4957359;29;20186;-84
2021/04/07 03:17:28;;;;;;;3.33;2.90;;;;;;;;;;4955956;29;20243;-80
2021/04/07 03:22:57;;;;;;;4.15;3.17;;;;;;;;;;4954411;29;20490;-81
2021/04/07 03:25:23;;;;;;;3.13;2.83;;;;;;;;;;4954710;28;20179;-82
2021/04/07 03:27:49;;;;;;;6.10;2.63;;;;;;;;;;4957872;29;20433;-84
2021/04/07 03:30:17;;;;;;;4.10;3.47;;;;;;;;;;4956409;29;20512;-84
2021/04/07 03:32:43;;;;;;;2.92;2.65;;;;;;;;;;4957780;29;20423;-84
2021/04/07 03:38:12;;;;;;;4.65;3.30;;;;;;;;;;4957359;29;20534;-82
2021/04/07 03:40:38;;;;;;;3.70;2.20;;;;;;;;;;4957363;29;20274;-82
2021/04/07 03:43:11;;;;;;;3.00;2.80;;;;;;;;;;4957529;29;20425;-82
2021/04/07 03:45:37;;;;;;;3.42;2.65;;;;;;;;;;4957181;29;20178;-83
2021/04/07 03:48:04;;;;;;;4.22;2.70;;;;;;;;;;4957579;29;20614;-81
2021/04/07 03:50:30;;;;;;;4.45;3.15;;;;;;;;;;4957019;29;20700;-82
2021/04/07 03:52:56;;;;;;;4.60;3.92;;;;;;;;;;4958296;29;20176;-84
2021/04/07 03:55:22;;;;;;;3.17;2.63;;;;;;;;;;4957615;29;20230;-76
2021/04/07 03:57:48;;;;;;;5.63;3.58;;;;;;;;;;4957509;29;20423;-81
2021/04/07 04:00:14;;;;;;;4.25;2.70;;;;;;;;;;4956045;29;20194;-84
2021/04/07 04:02:40;;;;;;;5.78;2.85;;;;;;;;;;4956772;29;20175;-79
2021/04/07 04:08:10;;;;;;;2.78;2.58;;;;;;;;;;4956842;29;20957;-80
2021/04/07 04:10:36;;;;;;;3.10;2.75;;;;;;;;;;4957471;29;20212;-82
2021/04/07 04:13:03;;;;;;;5.47;2.63;;;;;;;;;;4961986;29;20183;-81
2021/04/07 04:15:29;;;;;;;2.63;2.30;;;;;;;;;;4961776;29;20176;-83
2021/04/07 04:17:55;;;;;;;5.68;3.47;;;;;;;;;;4958595;29;20648;-79
2021/04/07 04:23:25;;;;;;;5.95;2.42;;;;;;;;;;4956986;29;20225;-85
2021/04/07 04:25:51;;;;;;;3.10;2.90;;;;;;;;;;4969751;29;20228;-74
2021/04/07 04:28:17;;;;;;;2.97;2.67;;;;;;;;;;4960708;29;20206;-79
2021/04/07 04:30:43;;;;;;;4.57;2.70;;;;;;;;;;4957263;29;20517;-80
2021/04/07 04:33:09;;;;;;;3.37;2.40;;;;;;;;;;4957535;29;20249;-82
2021/04/07 04:38:38;;;;;;;2.95;2.40;;;;;;;;;;4968158;29;20432;-80
2021/04/07 04:41:04;;;;;;;2.57;2.10;;;;;;;;;;4963423;29;20260;-83
2021/04/07 04:43:30;;;;;;;2.53;2.13;;;;;;;;;;4956273;29;20427;-83
2021/04/07 04:45:57;;;;;;;2.67;1.93;;;;;;;;;;4956064;29;20434;-84
2021/04/07 04:48:23;;;;;;;5.30;2.20;;;;;;;;;;4956186;29;20481;-80
2021/04/07 04:53:52;;;;;;;2.25;1.65;;;;;;;;;;4955568;28;21006;-83
2021/04/07 04:56:18;;;;;;;3.42;2.50;;;;;;;;;;4955534;29;20518;-82
2021/04/07 04:58:44;;;;;;;2.47;2.25;;;;;;;;;;4956382;29;20233;-83
2021/04/07 05:01:11;;;;;;;2.60;2.17;;;;;;;;;;4955913;29;20225;-82
2021/04/07 05:03:37;;;;;;;2.15;1.95;;;;;;;;;;4955927;29;20516;-79
2021/04/07 05:06:03;;;;;;;9.50;3.13;;;;;;;;;;4955885;29;20176;-79
2021/04/07 05:08:29;;;;;;;2.10;1.73;;;;;;;;;;4956178;29;20185;-83
2021/04/07 05:10:55;;;;;;;2.70;2.20;;;;;;;;;;4956116;29;20580;-80
2021/04/07 05:13:21;;;;;;;2.20;1.83;;;;;;;;;;4955688;29;20178;-83
2021/04/07 05:15:47;;;;;;;3.37;2.07;;;;;;;;;;4955883;29;20177;-81
2021/04/07 05:18:14;;;;;;;3.40;2.10;;;;;;;;;;4955650;29;20842;-85
2021/04/07 05:23:43;;;;;;;3.72;2.40;;;;;;;;;;4955779;29;20193;-78
2021/04/07 05:26:09;;;;;;;3.80;2.08;;;;;;;;;;4939098;29;20549;-83
2021/04/07 05:28:35;;;;;;;4.93;1.80;;;;;;;;;;4955634;29;20641;-83
2021/04/07 05:31:02;;;;;;;2.30;2.10;;;;;;;;;;4955246;29;20524;-84
2021/04/07 05:33:32;;;;;;;2.13;1.92;;;;;;;;;;4955283;29;20172;-83
2021/04/07 05:39:02;;;;;;;2.45;2.00;;;;;;;;;;4955706;29;20189;-78
2021/04/07 05:41:28;;;;;;;2.97;2.00;;;;;;;;;;4955464;29;20177;-81
2021/04/07 05:43:55;;;;;;;4.73;2.60;;;;;;;;;;4955354;29;20423;-82
2021/04/07 05:46:21;;;;;;;3.42;1.85;;;;;;;;;;4955037;29;20414;-81
2021/04/07 05:48:47;;;;;;;3.47;2.20;;;;;;;;;;4954440;28;20177;-82
2021/04/07 05:54:16;;;;;;;4.32;2.20;;;;;;;;;;4954927;28;20478;-77
2021/04/07 05:56:42;;;;;;;1.53;1.43;;;;;;;;;;4954979;29;20183;-81
2021/04/07 05:59:08;;;;;;;3.42;2.15;;;;;;;;;;4954314;29;20433;-80
2021/04/07 06:01:34;;;;;;;2.13;1.93;;;;;;;;;;4953477;29;20179;-76
2021/04/07 06:04:00;;;;;;;2.40;1.70;;;;;;;;;;4953512;29;20421;-78
2021/04/07 06:06:26;;;;;;;4.70;2.30;;;;;;;;;;4953846;29;20182;-78
2021/04/07 06:08:52;;;;;;;3.50;1.52;;;;;;;;;;4953888;29;20422;-79
2021/04/07 06:11:19;;;;;;;2.92;1.80;;;;;;;;;;4954364;29;20213;-78
2021/04/07 06:13:46;;;;;;;3.58;1.95;;;;;;;;;;4953868;29;20179;-80
2021/04/07 06:16:13;;;;;;;2.80;1.92;;;;;;;;;;4954605;29;20261;-75
2021/04/07 06:18:39;;;;;;;4.50;2.42;;;;;;;;;;4954120;29;20173;-77
2021/04/07 06:24:08;;;;;;;2.28;1.90;;;;;;;;;;4954543;29;20174;-79
2021/04/07 06:26:37;;;;;;;1.65;1.55;;;;;;;;;;4955574;29;20528;-83
2021/04/07 06:29:03;;;;;;;3.17;1.70;;;;;;;;;;4952130;29;20236;-81
2021/04/07 06:31:29;;;;;;;3.03;2.22;;;;;;;;;;4953226;29;20647;-80
2021/04/07 06:33:55;;;;;;;3.43;1.97;;;;;;;;;;4952330;29;20167;-76
2021/04/07 06:39:24;;;;;;;1.70;1.60;;;;;;;;;;4954879;29;20423;-83
2021/04/07 06:41:50;;;;;;;2.13;1.87;;;;;;;;;;4954410;29;20173;-78
2021/04/07 06:44:17;;;;;;;2.10;1.40;;;;;;;;;;4954296;29;20522;-77
2021/04/07 06:46:44;;;;;;;2.80;1.90;;;;;;;;;;4954334;29;20411;-81
2021/04/07 06:49:10;;;;;;;3.78;2.00;;;;;;;;;;4954297;29;20598;-83
2021/04/07 06:54:41;;;;;;;2.42;1.65;;;;;;;;;;4955204;29;20263;-81
2021/04/07 06:57:07;;;;;;;3.72;3.00;;;;;;;;;;4954762;29;20249;-81
2021/04/07 06:59:36;;;;;;;5.77;3.03;;;;;;;;;;4954114;28;20197;-75
2021/04/07 07:02:02;;;;;;;3.75;1.90;;;;;;;;;;4959181;29;20414;-79
2021/04/07 07:04:29;;;;;;;1.55;1.45;;;;;;;;;;4959744;29;20173;-73
2021/04/07 07:09:58;;;;;;;2.90;1.70;;;;;;;;;;4962789;29;20748;-79
2021/04/07 07:12:25;;;;;;;2.00;1.65;;;;;;;;;;4951684;29;20186;-82
2021/04/07 07:14:52;;;;;;;3.90;1.70;;;;;;;;;;4965273;29;20179;-84
2021/04/07 07:17:28;;;;;;;2.97;1.58;;;;;;;;;;4964310;29;20201;-78
2021/04/07 07:19:54;;;;;;;4.95;1.73;;;;;;;;;;4972877;29;20207;-83
2021/04/07 07:22:21;;;;;;;2.25;1.35;;;;;;;;;;4962767;29;20172;-76
2021/04/07 07:24:50;;;;;;;2.22;1.65;;;;;;;;;;4970188;29;20171;-77
2021/04/07 07:27:16;;;;;;;2.42;1.42;;;;;;;;;;4971642;29;20263;-78
2021/04/07 07:29:42;;;;;;;2.80;1.33;;;;;;;;;;4966952;29;20235;-83
2021/04/07 07:32:11;;;;;;;2.67;1.60;;;;;;;;;;4962679;29;20463;-82
2021/04/07 07:34:37;;;;;;;1.48;1.38;;;;;;;;;;4946644;29;20631;-82
2021/04/07 07:40:09;;;;;;;1.98;1.80;;;;;;;;;;4964890;29;20181;-82
2021/04/07 07:42:35;;;;;;;2.05;1.95;;;;;;;;;;4961790;29;20175;-80
2021/04/07 07:45:01;;;;;;;3.08;2.30;;;;;;;;;;4962916;29;20172;-82
2021/04/07 07:47:34;;;;;;;2.28;1.70;;;;;;;;;;4960297;29;20168;-81
2021/04/07 07:50:01;;;;;;;1.80;1.70;;;;;;;;;;4960565;29;20238;-80
2021/04/07 07:52:27;;;;;;;1.90;1.30;;;;;;;;;;4957628;29;20206;-82
2021/04/07 07:54:54;;;;;;;1.30;1.20;;;;;;;;;;4958971;29;20239;-82
2021/04/07 07:57:20;;;;;;;1.40;1.30;;;;;;;;;;4958951;29;20199;-78
2021/04/07 07:59:46;;;;;;;4.03;1.63;;;;;;;;;;4940138;29;20180;-79
2021/04/07 08:02:19;;;;;;;1.30;1.17;;;;;;;;;;4957255;29;20191;-75
2021/04/07 08:04:46;;;;;;;2.03;1.85;;;;;;;;;;4955226;29;20519;-74
2021/04/07 08:10:15;;;;;;;2.67;1.55;;;;;;;;;;4956699;29;20214;-74
2021/04/07 08:12:42;;;;;;;1.90;1.40;;;;;;;;;;4955728;28;20179;-80
2021/04/07 08:15:09;;;;;;;2.60;2.13;;;;;;;;;;4955960;29;20434;-74
2021/04/07 08:17:35;;;;;;;1.75;1.40;;;;;;;;;;4956007;29;20164;-74
2021/04/07 08:20:04;;;;;;;4.15;1.42;;;;;;;;;;4955696;29;20539;-73
2021/04/07 08:25:34;;;;;;;1.92;1.50;;;;;;;;;;4956276;29;20530;-76
2021/04/07 08:28:00;;;;;;;2.58;2.05;;;;;;;;;;4956391;29;20187;-77
2021/04/07 08:30:28;;;;;;;3.85;1.60;;;;;;;;;;4957291;29;20207;-75
2021/04/07 08:32:54;;;;;;;1.60;1.38;;;;;;;;;;4957175;29;20165;-77
2021/04/07 08:35:20;;;;;;;1.80;1.40;;;;;;;;;;4956297;29;20706;-74
2021/04/07 08:37:57;;;;;;;3.97;1.15;;;;;;;;;;4956310;29;20300;-74
2021/04/07 08:40:23;;;;;;;2.40;1.63;;;;;;;;;;4958464;29;20653;-79
2021/04/07 08:42:49;;;;;;;1.52;1.25;;;;;;;;;;4954961;29;20595;-80
2021/04/07 08:45:15;;;;;;;1.92;1.50;;;;;;;;;;4954666;29;20690;-78
2021/04/07 08:48:02;;;;;;;6.53;1.80;;;;;;;;;;4956410;29;20172;-80
2021/04/07 08:56:25;;;;;;;1.60;1.25;;;;;;;;;;4954268;29;20186;-78
2021/04/07 08:58:55;;;;;;;1.42;1.30;;;;;;;;;;4953445;29;20182;-75
2021/04/07 09:01:39;;;;;;;2.90;1.58;;;;;;;;;;4956516;29;20607;-76
2021/04/07 09:04:18;;;;;;;4.95;1.73;;;;;;;;;;4959895;29;20195;-79
2021/04/07 09:07:00;;;;;;;3.75;2.03;;;;;;;;;;4955530;29;20164;-79
2021/04/07 09:09:27;;;;;;;5.28;2.22;;;;;;;;;;4954707;29;20623;-80
2021/04/07 09:11:53;;;;;;;3.33;2.17;;;;;;;;;;4955126;29;20181;-79
2021/04/07 09:14:23;;;;;;;1.90;1.67;;;;;;;;;;4954790;29;20299;-79
2021/04/07 09:16:49;;;;;;;2.47;2.33;;;;;;;;;;4955239;29;20183;-75
2021/04/07 09:19:23;;;;;;;3.28;1.75;;;;;;;;;;4955363;29;20332;-75
2021/04/07 09:21:52;;;;;;;2.90;1.77;;;;;;;;;;4954712;29;20172;-74
2021/04/07 09:24:19;;;;;;;2.58;1.73;;;;;;;;;;4953667;28;20627;-79
2021/04/07 09:26:46;;;;;;;2.50;1.80;;;;;;;;;;4954837;29;20179;-78
2021/04/07 09:29:13;;;;;;;2.33;1.98;;;;;;;;;;4954114;29;20619;-76
2021/04/07 09:31:39;;;;;;;2.63;1.80;;;;;;;;;;4954939;29;20180;-74
2021/04/07 09:34:06;;;;;;;2.38;2.08;;;;;;;;;;4954474;29;20186;-74
2021/04/07 09:36:36;;;;;;;1.90;1.80;;;;;;;;;;4937028;29;20278;-76
2021/04/07 09:39:12;;;;;;;3.25;1.85;;;;;;;;;;4955393;29;20176;-77
2021/04/07 09:41:42;;;;;;;1.48;1.30;;;;;;;;;;4955130;29;20172;-76
2021/04/07 09:44:09;;;;;;;1.98;1.88;;;;;;;;;;4939038;29;20179;-74
2021/04/07 09:46:35;;;;;;;1.13;1.02;;;;;;;;;;4955978;29;20251;-73
2021/04/07 09:49:05;;;;;;;3.38;1.70;;;;;;;;;;4955369;29;20215;-78
2021/04/07 09:51:34;;;;;;;1.92;1.40;;;;;;;;;;4955840;29;20642;-76
2021/04/07 09:54:10;;;;;;;2.83;1.52;;;;;;;;;;4954457;29;20220;-79
2021/04/07 09:56:46;;;;;;;3.50;1.95;;;;;;;;;;4953800;29;20507;-75
2021/04/07 09:59:12;;;;;;;4.10;2.00;;;;;;;;;;4953576;29;20537;-75
2021/04/07 10:01:39;;;;;;;3.60;1.77;;;;;;;;;;4953929;29;20179;-83
2021/04/07 10:04:05;;;;;;;3.25;1.67;;;;;;;;;;4954418;29;20411;-79
2021/04/07 10:06:31;;;;;;;2.10;1.50;;;;;;;;;;4954095;29;20174;-79
2021/04/07 10:09:10;;;;;;;2.40;1.70;;;;;;;;;;4954359;29;20211;-78
2021/04/07 10:11:38;;;;;;;2.25;1.40;;;;;;;;;;4954776;29;20469;-81
2021/04/07 10:14:04;;;;;;;6.97;1.42;;;;;;;;;;4957289;29;20207;-83
2021/04/07 10:16:37;;;;;;;1.95;1.45;;;;;;;;;;4955184;29;20168;-84
2021/04/07 10:19:07;;;;;;;2.28;1.77;;;;;;;;;;4956086;29;20163;-83
2021/04/07 10:21:33;;;;;;;1.80;1.60;;;;;;;;;;4956883;29;20193;-82
2021/04/07 10:24:00;;;;;;;5.25;1.63;;;;;;;;;;4952157;29;20542;-76
2021/04/07 10:26:26;;;;;;;2.03;1.48;;;;;;;;;;4957752;29;20189;-78
2021/04/07 10:28:56;;;;;;;3.40;1.90;;;;;;;;;;4956841;29;20182;-76
2021/04/07 10:31:22;;;;;;;1.80;1.65;;;;;;;;;;4956501;29;20247;-81
2021/04/07 10:33:48;;;;;;;2.10;1.20;;;;;;;;;;4956240;28;20184;-80
2021/04/07 10:36:14;;;;;;;4.82;1.77;;;;;;;;;;4960517;29;20518;-83
2021/04/07 10:41:47;;;;;;;8.07;1.30;;;;;;;;;;4957912;29;20183;-82
2021/04/07 10:44:24;;;;;;;2.33;2.00;;;;;;;;;;4957067;29;20172;-81
2021/04/07 10:46:50;;;;;;;4.80;1.70;;;;;;;;;;4957801;29;20168;-84
2021/04/07 10:49:16;;;;;;;1.20;0.95;;;;;;;;;;4975365;29;20173;-82
2021/04/07 10:51:43;;;;;;;3.00;1.42;;;;;;;;;;4963054;29;20209;-83
2021/04/07 10:57:12;;;;;;;5.10;1.52;;;;;;;;;;4957751;29;20191;-81
2021/04/07 10:59:38;;;;;;;1.00;0.87;;;;;;;;;;4958936;29;20175;-76
2021/04/07 11:02:14;;;;;;;2.88;1.20;;;;;;;;;;4956973;29;20418;-82
2021/04/07 11:04:40;;;;;;;2.58;1.48;;;;;;;;;;4956767;29;20177;-83
2021/04/07 11:07:11;;;;;;;2.10;1.08;;;;;;;;;;4957469;29;20168;-82
2021/04/07 11:09:40;;;;;;;1.52;1.35;;;;;;;;;;4959233;29;20219;-81
2021/04/07 11:12:07;;;;;;;3.22;1.65;;;;;;;;;;4957059;29;20555;-83
2021/04/07 11:14:33;;;;;;;3.13;1.27;;;;;;;;;;4957599;29;20173;-81
2021/04/07 11:17:00;;;;;;;1.40;1.20;;;;;;;;;;4957646;29;20174;-84
2021/04/07 11:19:36;;;;;;;1.98;0.80;;;;;;;;;;4957737;29;20625;-83
2021/04/07 11:27:52;;;;;;;1.40;1.02;;;;;;;;;;4957898;29;20192;-83
2021/04/07 11:30:18;;;;;;;3.30;1.60;;;;;;;;;;4955214;29;20208;-82
2021/04/07 11:32:49;;;;;;;1.17;1.08;;;;;;;;;;4956549;29;20172;-84
2021/04/07 11:35:23;;;;;;;1.60;1.23;;;;;;;;;;4956710;29;20185;-81
2021/04/07 11:38:01;;;;;;;2.45;1.30;;;;;;;;;;4957049;29;20205;-86
2021/04/07 11:43:10;;;;;;;4.20;1.80;;;;;;;;;;4956884;29;20174;-86
2021/04/07 11:45:36;;;;;;;5.38;1.80;;;;;;;;;;4956180;28;20186;-84
2021/04/07 11:48:02;;;;;;;1.10;0.90;;;;;;;;;;4956359;29;20170;-86
2021/04/07 11:50:29;;;;;;;2.35;1.75;;;;;;;;;;4956638;29;20283;-81
2021/04/07 11:52:55;;;;;;;3.25;1.50;;;;;;;;;;4956580;29;20183;-84
2021/04/07 11:55:22;;;;;;;2.45;1.20;;;;;;;;;;4956333;28;20302;-81
2021/04/07 11:57:48;;;;;;;1.60;1.20;;;;;;;;;;4956231;29;20184;-82
2021/04/07 12:00:15;;;;;;;2.03;1.15;;;;;;;;;;4955903;29;20702;-77
2021/04/07 12:02:44;;;;;;;2.55;1.70;;;;;;;;;;4956502;29;20235;-80
2021/04/07 12:05:11;;;;;;;2.10;1.70;;;;;;;;;;4955978;29;20302;-80
2021/04/07 12:07:37;;;;;;;3.33;1.83;;;;;;;;;;4956347;29;20176;-78
2021/04/07 12:10:05;;;;;;;3.08;1.65;;;;;;;;;;4955923;29;20202;-76
2021/04/07 12:12:31;;;;;;;2.40;1.67;;;;;;;;;;4956016;29;20474;-78
2021/04/07 12:14:57;;;;;;;3.90;1.35;;;;;;;;;;4956001;29;20171;-80
2021/04/07 12:17:23;;;;;;;5.03;1.43;;;;;;;;;;4956004;29;20171;-76
2021/04/07 12:19:49;;;;;;;3.03;1.60;;;;;;;;;;4956421;29;20840;-79
2021/04/07 12:22:16;;;;;;;1.60;1.37;;;;;;;;;;4955990;29;20422;-77
2021/04/07 12:27:45;;;;;;;1.88;1.30;;;;;;;;;;4955621;29;20184;-82
2021/04/07 12:30:12;;;;;;;2.53;1.30;;;;;;;;;;4955212;29;20220;-76
2021/04/07 12:32:38;;;;;;;2.40;1.50;;;;;;;;;;4956110;29;20398;-79
2021/04/07 12:35:08;;;;;;;3.05;2.10;;;;;;;;;;4955931;29;20177;-78
2021/04/07 12:37:36;;;;;;;2.00;1.60;;;;;;;;;;4955895;29;20522;-76
2021/04/07 12:43:06;;;;;;;4.15;1.30;;;;;;;;;;4956575;29;20281;-82
2021/04/07 12:45:32;;;;;;;2.70;2.00;;;;;;;;;;4955462;29;20174;-84
2021/04/07 12:47:58;;;;;;;2.10;1.33;;;;;;;;;;4955455;29;20183;-81
2021/04/07 12:50:24;;;;;;;2.15;1.50;;;;;;;;;;4955174;29;20223;-75
2021/04/07 12:52:50;;;;;;;2.65;1.65;;;;;;;;;;4955431;29;20231;-76
2021/04/07 12:58:20;;;;;;;2.53;1.50;;;;;;;;;;4954478;28;20436;-78
2021/04/07 13:00:46;;;;;;;3.28;1.60;;;;;;;;;;4955449;29;20278;-76
2021/04/07 13:03:14;;;;;;;2.10;1.70;;;;;;;;;;4955081;29;20182;-82
2021/04/07 13:05:41;;;;;;;5.05;1.15;;;;;;;;;;4954975;29;20501;-76
2021/04/07 13:08:07;;;;;;;1.58;1.42;;;;;;;;;;4954856;29;20168;-77
2021/04/07 13:10:37;;;;;;;1.70;1.35;;;;;;;;;;4954856;29;20685;-82
2021/04/07 13:13:03;;;;;;;5.03;1.23;;;;;;;;;;4954850;29;20641;-76
2021/04/07 13:15:29;;;;;;;3.53;0.90;;;;;;;;;;4954856;29;20260;-82
2021/04/07 13:17:55;;;;;;;1.83;1.50;;;;;;;;;;4954592;29;20184;-75
2021/04/07 13:20:24;;;;;;;1.90;1.70;;;;;;;;;;4954549;29;20180;-79
2021/04/07 13:22:49;;;;;;;3.55;1.55;;;;;;;;;;4937523;29;20428;-80
2021/04/07 13:28:19;;;;;;;2.28;1.25;;;;;;;;;;4953937;29;20922;-80
2021/04/07 13:30:47;;;;;;;4.47;1.63;;;;;;;;;;4954374;29;20204;-75
2021/04/07 13:33:22;;;;;;;2.10;1.58;;;;;;;;;;4937243;29;20264;-73
2021/04/07 13:35:54;;;;;;;5.90;1.50;;;;;;;;;;4953637;29;20174;-73
2021/04/07 13:43:30;;;;;;;3.22;1.30;;;;;;;;;;4953217;29;20176;-78
2021/04/07 13:45:57;;;;;;;2.47;1.40;;;;;;;;;;4952283;29;20234;-76
2021/04/07 13:48:28;;;;;;;3.47;1.73;;;;;;;;;;4953057;29;20220;-77
2021/04/07 13:50:54;;;;;;;3.53;1.50;;;;;;;;;;4952704;29;20580;-80
2021/04/07 13:53:20;;;;;;;3.03;1.48;;;;;;;;;;4952541;29;20172;-77
2021/04/07 13:55:50;;;;;;;2.58;1.30;;;;;;;;;;4952556;29;20192;-74
2021/04/07 13:58:17;;;;;;;4.15;1.20;;;;;;;;;;4952227;29;20274;-73
2021/04/07 14:00:43;;;;;;;4.95;1.75;;;;;;;;;;4952960;29;20183;-76
2021/04/07 14:03:10;;;;;;;7.57;1.90;;;;;;;;;;4953050;29;20176;-80
2021/04/07 14:05:36;;;;;;;2.67;1.80;;;;;;;;;;4952228;29;20195;-74
2021/04/07 14:08:03;;;;;;;3.47;1.90;;;;;;;;;;4952811;29;20180;-75
2021/04/07 14:13:35;;;;;;;3.78;1.85;;;;;;;;;;4956346;29;20190;-79
2021/04/07 14:16:01;;;;;;;1.75;1.60;;;;;;;;;;4956725;29;20172;-76
2021/04/07 14:18:27;;;;;;;3.83;1.70;;;;;;;;;;4953543;29;20207;-73
2021/04/07 14:20:53;;;;;;;2.50;1.40;;;;;;;;;;4935338;29;20487;-73
2021/04/07 14:23:19;;;;;;;5.40;1.83;;;;;;;;;;4952406;29;20423;-73
2021/04/07 14:28:49;;;;;;;1.50;1.40;;;;;;;;;;4954244;29;20227;-73
2021/04/07 14:31:15;;;;;;;7.25;1.25;;;;;;;;;;4953352;29;20216;-73
2021/04/07 14:33:44;;;;;;;2.45;0.93;;;;;;;;;;4954374;29;20175;-77
2021/04/07 14:36:11;;;;;;;4.20;1.35;;;;;;;;;;4956401;29;20185;-75
2021/04/07 14:38:37;;;;;;;3.03;1.65;;;;;;;;;;4954351;29;20199;-76
2021/04/07 14:41:03;;;;;;;5.05;1.38;;;;;;;;;;4952246;29;20176;-77
2021/04/07 14:43:29;;;;;;;4.65;1.80;;;;;;;;;;4952416;29;20612;-77
2021/04/07 14:45:58;;;;;;;2.22;1.85;;;;;;;;;;4952560;29;20227;-77
2021/04/07 14:48:26;;;;;;;5.00;1.73;;;;;;;;;;4951815;29;20657;-75
2021/04/07 14:50:56;;;;;;;1.75;1.58;;;;;;;;;;4934611;29;20704;-79
2021/04/07 14:53:22;;;;;;;1.60;1.48;;;;;;;;;;4951798;28;20516;-78
2021/04/07 14:58:52;;;;;;;2.33;2.13;;;;;;;;;;4951922;29;20214;-75
2021/04/07 15:01:19;;;;;;;1.98;1.45;;;;;;;;;;4951764;29;20180;-76
2021/04/07 15:03:47;;;;;;;1.63;1.23;;;;;;;;;;4951794;29;20667;-80
2021/04/07 15:06:14;;;;;;;4.05;1.90;;;;;;;;;;4951707;29;20168;-78
2021/04/07 15:08:42;;;;;;;1.60;1.50;;;;;;;;;;4951965;29;20204;-76
2021/04/07 15:14:11;;;;;;;2.58;1.65;;;;;;;;;;4952274;29;20212;-75
2021/04/07 15:16:37;;;;;;;2.53;1.90;;;;;;;;;;4951960;29;20697;-75
2021/04/07 15:19:03;;;;;;;2.20;1.67;;;;;;;;;;4952377;29;20520;-77
2021/04/07 15:21:34;;;;;;;3.42;2.15;;;;;;;;;;4954830;28;20180;-75
2021/04/07 15:24:00;;;;;;;2.00;1.60;;;;;;;;;;4955543;29;20547;-80
2021/04/07 15:29:30;;;;;;;4.03;1.63;;;;;;;;;;4954710;29;20563;-75
2021/04/07 15:31:57;;;;;;;2.13;1.83;;;;;;;;;;4955340;29;20764;-76
2021/04/07 15:34:23;;;;;;;3.28;2.38;;;;;;;;;;4936993;29;20182;-75
2021/04/07 15:36:49;;;;;;;3.17;2.50;;;;;;;;;;4955270;29;20538;-75
2021/04/07 15:45:12;;;;;;;4.07;2.67;;;;;;;;;;4955641;29;20171;-75
2021/04/07 15:47:38;;;;;;;4.20;2.25;;;;;;;;;;4955544;29;20186;-77
2021/04/07 15:50:05;;;;;;;2.10;1.83;;;;;;;;;;4954936;29;20211;-75
2021/04/07 15:52:32;;;;;;;3.60;2.00;;;;;;;;;;4954960;29;20415;-77
2021/04/07 15:54:59;;;;;;;2.10;1.90;;;;;;;;;;4955062;28;20727;-76
2021/04/07 15:57:28;;;;;;;2.70;2.50;;;;;;;;;;4954966;29;20242;-77
2021/04/07 15:59:55;;;;;;;5.50;2.60;;;;;;;;;;4938158;29;20175;-75
2021/04/07 16:02:24;;;;;;;4.80;2.67;;;;;;;;;;4955327;29;20199;-76
2021/04/07 16:04:50;;;;;;;5.15;3.38;;;;;;;;;;4955347;29;20180;-75
2021/04/07 16:07:19;;;;;;;3.38;3.08;;;;;;;;;;4955437;29;20176;-76
2021/04/07 16:09:46;;;;;;;5.35;2.30;;;;;;;;;;4954999;29;20171;-77
2021/04/07 16:12:13;;;;;;;2.15;1.95;;;;;;;;;;4955258;29;20187;-76
2021/04/07 16:14:39;;;;;;;2.83;2.40;;;;;;;;;;4937961;29;20247;-77
2021/04/07 16:17:06;;;;;;;5.63;1.90;;;;;;;;;;4937635;29;20278;-75
2021/04/07 16:19:33;;;;;;;2.67;2.47;;;;;;;;;;4955114;29;20166;-79
2021/04/07 16:21:59;;;;;;;2.88;2.50;;;;;;;;;;4938030;29;20181;-76
2021/04/07 16:24:25;;;;;;;3.50;2.70;;;;;;;;;;4955106;29;20172;-77
2021/04/07 16:29:54;;;;;;;3.00;2.08;;;;;;;;;;4956348;29;20773;-75
2021/04/07 16:32:20;;;;;;;2.70;2.50;;;;;;;;;;4956706;28;20174;-77
2021/04/07 16:34:49;;;;;;;5.15;2.28;;;;;;;;;;4959082;29;20424;-76
2021/04/07 16:37:16;;;;;;;4.35;2.45;;;;;;;;;;4962315;29;20320;-77
2021/04/07 16:39:42;;;;;;;3.30;2.05;;;;;;;;;;4955486;29;20191;-79
2021/04/07 16:45:12;;;;;;;2.55;2.35;;;;;;;;;;4955257;29;20187;-77
2021/04/07 16:47:38;;;;;;;4.10;2.70;;;;;;;;;;4937534;29;20265;-77
2021/04/07 16:50:05;;;;;;;2.90;2.60;;;;;;;;;;4954761;29;20195;-75
2021/04/07 16:52:31;;;;;;;5.22;2.55;;;;;;;;;;4954551;29;20531;-77
2021/04/07 17:00:46;;;;;;;3.53;2.75;;;;;;;;;;4954559;29;20176;-76
2021/04/07 17:03:12;;;;;;;3.63;2.70;;;;;;;;;;4954700;29;20186;-77
2021/04/07 17:05:38;;;;;;;2.57;2.37;;;;;;;;;;4954473;29;20236;-76
2021/04/07 17:08:04;;;;;;;2.88;2.58;;;;;;;;;;4954778;29;20769;-79
2021/04/07 17:10:30;;;;;;;2.53;2.33;;;;;;;;;;4954726;29;20210;-75
2021/04/07 17:12:56;;;;;;;3.42;2.60;;;;;;;;;;4954776;29;20179;-77